createdAt,value
2022-12-09T00:04:35.297Z,1.77
2022-12-09T00:09:38.768Z,1.79
2022-12-09T00:14:42.072Z,1.82
2022-12-09T00:19:46.303Z,1.83
2022-12-09T00:24:49.768Z,1.81
2022-12-09T00:29:53.130Z,1.83
2022-12-09T00:34:56.334Z,1.84
2022-12-09T00:39:59.750Z,1.85
2022-12-09T00:45:03.165Z,1.88
2022-12-09T00:50:07.629Z,1.92
2022-12-09T00:55:11.308Z,1.93
2022-12-09T01:00:15.294Z,1.97
2022-12-09T01:05:18.580Z,1.95
2022-12-09T01:10:22.326Z,1.93
2022-12-09T01:15:25.708Z,1.97
2022-12-09T01:20:29.095Z,2.01
2022-12-09T01:25:32.839Z,2.06
2022-12-09T01:30:36.575Z,2.07
2022-12-09T01:35:41.696Z,2.12
2022-12-09T01:40:47.152Z,2.13
2022-12-09T01:45:51.282Z,2.15
2022-12-09T01:51:02.289Z,2.18
2022-12-09T01:56:20.128Z,2.17
2022-12-09T02:01:24.029Z,2.19
2022-12-09T02:06:28.191Z,2.18
2022-12-09T02:12:19.776Z,2.18
2022-12-09T02:17:34.341Z,2.25
2022-12-09T02:22:45.863Z,2.29
2022-12-09T02:28:28.366Z,2.33
2022-12-09T02:33:56.375Z,2.38
2022-12-09T02:39:00.555Z,2.42
2022-12-09T02:44:10.154Z,2.40
2022-12-09T02:49:15.952Z,2.39
2022-12-09T02:54:20.762Z,2.41
2022-12-09T02:59:24.345Z,2.38
2022-12-09T03:04:30.541Z,2.37
2022-12-09T03:09:36.937Z,2.40
2022-12-09T03:14:47.221Z,2.42
2022-12-09T03:19:57.812Z,2.45
2022-12-09T03:25:07.116Z,2.42
2022-12-09T03:30:12.034Z,2.45
2022-12-09T03:35:21.418Z,2.56
2022-12-09T03:40:28.576Z,2.61
2022-12-09T03:45:33.198Z,2.63
2022-12-09T03:50:46.811Z,2.59
2022-12-09T03:56:23.737Z,2.55
2022-12-09T04:01:29.040Z,2.47
2022-12-09T04:06:32.374Z,2.38
2022-12-09T04:11:35.814Z,2.39
2022-12-09T04:16:39.639Z,2.41
2022-12-09T04:21:44.044Z,2.47
2022-12-09T04:26:47.666Z,2.40
2022-12-09T04:31:51.137Z,2.33
2022-12-09T04:36:54.943Z,2.32
2022-12-09T04:41:58.524Z,2.44
2022-12-09T04:47:02.015Z,2.52
2022-12-09T04:52:06.101Z,2.63
2022-12-09T04:57:09.845Z,2.67
2022-12-09T05:02:13.679Z,2.75
2022-12-09T05:07:17.297Z,2.80
2022-12-09T05:12:20.962Z,2.82
2022-12-09T05:17:24.778Z,2.84
2022-12-09T05:22:28.757Z,2.80
2022-12-09T05:27:32.387Z,2.81
2022-12-09T05:32:36.259Z,2.88
2022-12-09T05:37:39.666Z,2.80
2022-12-09T05:42:43.061Z,2.64
2022-12-09T05:47:46.575Z,2.56
2022-12-09T05:52:50.681Z,2.48
2022-12-09T05:57:55.118Z,2.55
2022-12-09T06:02:58.560Z,2.70
2022-12-09T06:08:06.645Z,2.78
2022-12-09T06:13:11.056Z,2.85
2022-12-09T06:18:14.561Z,2.87
2022-12-09T06:23:18.325Z,2.89
2022-12-09T06:28:22.142Z,2.79
2022-12-09T06:33:53.171Z,2.76
2022-12-09T06:38:49.685Z,2.72
2022-12-09T06:43:53.270Z,2.71
2022-12-09T06:48:57.525Z,2.66
2022-12-09T06:54:01.083Z,2.49
2022-12-09T06:59:09.260Z,2.39
2022-12-09T07:04:15.020Z,2.41
2022-12-09T07:09:20.933Z,2.51
2022-12-09T07:14:24.742Z,2.59
2022-12-09T07:19:31.236Z,2.54
2022-12-09T07:24:34.736Z,2.54
2022-12-09T07:29:38.414Z,2.63
2022-12-09T07:34:43.148Z,2.75
2022-12-09T07:39:46.735Z,2.81
2022-12-09T07:44:50.393Z,2.69
2022-12-09T07:49:54.000Z,2.59
2022-12-09T07:55:00.027Z,2.49
2022-12-09T08:00:05.553Z,2.38
2022-12-09T08:05:10.394Z,2.33
2022-12-09T08:10:14.204Z,2.31
2022-12-09T08:15:19.655Z,2.43
2022-12-09T08:20:28.754Z,2.51
2022-12-09T08:25:33.219Z,2.57
2022-12-09T08:30:37.732Z,2.56
2022-12-09T08:35:41.729Z,2.58
2022-12-09T08:40:45.655Z,2.57
2022-12-09T08:45:49.405Z,2.59
2022-12-09T08:50:55.016Z,2.57
2022-12-09T08:55:59.118Z,2.55
2022-12-09T09:01:02.430Z,2.59
2022-12-09T09:06:10.753Z,2.65
2022-12-09T09:11:20.584Z,2.71
2022-12-09T09:16:26.494Z,2.71
2022-12-09T09:21:29.923Z,2.75
2022-12-09T09:26:33.715Z,2.79
2022-12-09T09:31:37.543Z,2.75
2022-12-09T09:36:41.571Z,2.79
2022-12-09T09:42:07.414Z,2.76
2022-12-09T09:47:44.100Z,2.74
2022-12-09T09:52:48.004Z,2.77
2022-12-09T09:58:33.230Z,2.93
2022-12-09T10:03:59.074Z,3.03
2022-12-09T10:09:41.832Z,3.07
2022-12-09T10:14:57.259Z,3.15
2022-12-09T10:20:28.901Z,3.29
2022-12-09T10:25:39.200Z,3.43
2022-12-09T10:30:44.936Z,3.57
2022-12-09T10:35:48.865Z,3.61
2022-12-09T10:41:02.912Z,3.75
2022-12-09T10:46:25.551Z,3.85
2022-12-09T10:51:34.743Z,3.87
2022-12-09T10:57:00.078Z,3.85
2022-12-09T11:02:06.950Z,3.82
2022-12-09T11:07:11.048Z,3.80
2022-12-09T11:12:20.247Z,3.86
2022-12-09T11:17:28.299Z,3.92
2022-12-09T11:22:44.367Z,3.72
2022-12-09T11:27:56.399Z,3.49
2022-12-09T11:33:02.241Z,3.46
2022-12-09T11:38:34.827Z,3.34
2022-12-09T11:43:45.608Z,3.26
2022-12-09T11:48:59.059Z,3.31
2022-12-09T11:54:16.908Z,3.26
2022-12-09T11:59:24.274Z,3.15
2022-12-09T12:04:31.517Z,3.14
2022-12-09T12:09:56.642Z,3.17
2022-12-09T12:15:22.684Z,3.10
2022-12-09T12:20:49.243Z,3.05
2022-12-09T12:26:03.820Z,3.15
2022-12-09T12:31:14.703Z,2.99
2022-12-09T12:36:29.722Z,2.93
2022-12-09T12:41:47.333Z,2.92
2022-12-09T12:47:21.771Z,2.92
2022-12-09T12:52:55.897Z,2.89
2022-12-09T12:58:10.792Z,2.80
2022-12-09T13:03:46.363Z,2.74
2022-12-09T13:09:05.539Z,2.88
2022-12-09T13:14:16.630Z,2.95
2022-12-09T13:19:26.293Z,2.95
2022-12-09T13:25:01.039Z,2.92
2022-12-09T13:30:10.462Z,2.89
2022-12-09T13:35:23.226Z,2.88
2022-12-09T13:40:39.041Z,2.74
2022-12-09T13:45:45.484Z,2.65
2022-12-09T13:50:52.008Z,2.63
2022-12-09T13:56:04.628Z,2.62
2022-12-09T14:01:29.749Z,2.53
2022-12-09T14:06:55.075Z,2.52
2022-12-09T14:12:00.971Z,2.44
2022-12-09T14:17:19.714Z,2.38
2022-12-09T14:22:23.236Z,2.32
2022-12-09T14:27:29.088Z,2.23
2022-12-09T14:32:50.747Z,2.20
2022-12-09T14:38:09.624Z,2.26
2022-12-09T14:43:25.944Z,2.31
2022-12-09T14:48:55.774Z,2.28
2022-12-09T14:54:03.279Z,2.31
2022-12-09T14:59:10.218Z,2.31
2022-12-09T15:04:26.983Z,2.38
2022-12-09T15:09:30.314Z,2.43
2022-12-09T15:14:33.625Z,2.42
2022-12-09T15:19:59.841Z,2.37
2022-12-09T15:25:02.602Z,2.30
2022-12-09T15:30:23.119Z,2.28
2022-12-09T15:35:31.209Z,2.22
2022-12-09T15:40:36.976Z,2.12
2022-12-09T15:45:43.564Z,2.05
2022-12-09T15:50:51.585Z,2.07
2022-12-09T15:56:11.894Z,2.08
2022-12-09T16:01:42.454Z,2.08
2022-12-09T16:06:46.573Z,2.01
2022-12-09T16:11:53.983Z,1.95
2022-12-09T16:17:02.208Z,1.98
2022-12-09T16:22:11.354Z,2.00
2022-12-09T16:27:22.345Z,1.90
2022-12-09T16:32:28.624Z,1.84
2022-12-09T16:37:41.389Z,1.85
2022-12-09T16:42:45.317Z,1.90
2022-12-09T16:47:54.223Z,1.89
2022-12-09T16:52:59.684Z,1.88
2022-12-09T16:58:02.893Z,1.86
2022-12-09T17:03:11.021Z,1.86
2022-12-09T17:08:14.354Z,1.94
2022-12-09T17:13:17.845Z,2.08
2022-12-09T17:18:21.254Z,2.12
2022-12-09T17:23:24.568Z,2.18
2022-12-09T17:28:30.355Z,2.26
2022-12-09T17:33:33.647Z,2.33
2022-12-09T17:38:37.263Z,2.32
2022-12-09T17:43:41.291Z,2.35
2022-12-09T17:48:44.813Z,2.34
2022-12-09T17:53:50.474Z,2.37
2022-12-09T17:59:00.985Z,2.34
2022-12-09T18:04:09.716Z,2.25
2022-12-09T18:09:18.425Z,2.09
2022-12-09T18:14:21.940Z,1.98
2022-12-09T18:19:25.357Z,1.84
2022-12-09T18:24:29.825Z,1.80
2022-12-09T18:29:33.310Z,1.87
2022-12-09T20:02:12.179Z,2.43
2022-12-09T20:07:15.645Z,2.23
2022-12-09T20:12:18.952Z,2.10
2022-12-09T20:51:36.831Z,2.18
2022-12-09T20:56:43.522Z,1.84
2022-12-09T21:01:48.564Z,1.55
2022-12-09T21:06:52.807Z,1.42
2022-12-09T21:11:57.374Z,1.38
2022-12-09T21:17:01.167Z,1.35
2022-12-09T21:47:33.012Z,1.62
2022-12-09T21:52:36.219Z,1.64
2022-12-09T21:57:39.737Z,1.52
2022-12-09T22:02:44.740Z,1.37
2022-12-09T22:07:50.140Z,1.13
2022-12-09T22:12:55.235Z,0.98
2022-12-09T22:17:58.719Z,0.85
2022-12-09T22:23:02.028Z,0.77
2022-12-09T22:28:05.657Z,0.66
2022-12-09T22:33:09.059Z,0.58
2022-12-09T22:38:14.706Z,0.52
2022-12-09T22:43:18.340Z,0.51
2022-12-09T22:48:21.752Z,0.60
2022-12-09T22:53:25.062Z,0.62
2022-12-09T22:58:28.578Z,0.57
2022-12-09T23:03:31.884Z,0.50
2022-12-09T23:08:37.247Z,0.42
2022-12-09T23:13:41.397Z,0.24
2022-12-09T23:18:45.409Z,0.05
2022-12-09T23:23:48.918Z,-0.03
2022-12-09T23:28:54.190Z,-0.08
2022-12-09T23:33:58.113Z,-0.09
2022-12-09T23:39:03.372Z,-0.04
2022-12-09T23:44:11.727Z,0.05
2022-12-09T23:49:15.610Z,0.08
2022-12-09T23:54:19.129Z,0.06
2022-12-09T23:59:23.666Z,0.02
